Time;durP1;ratioP1;P1;durP2;ratioP2;P2;SDS_P1;SDS_P2;PMS_P1;PMS_P2;Temp;Humidity;BMP_temperature;BMP_pressure;BME280_temperature;BME280_humidity;BME280_pressure;Samples;Min_cycle;Max_cycle;Signal;HPM_P1;HPM_P2
2021/12/04 00:00:52;;;;;;;5.45;2.95;;;17.50;51.20;;;;;;5020735;28;20026;-54
2021/12/04 00:03:18;;;;;;;6.15;3.20;;;17.50;51.20;;;;;;5021287;28;20334;-58
2021/12/04 00:05:49;;;;;;;4.65;3.10;;;17.40;51.20;;;;;;5022428;28;20488;-56
2021/12/04 00:08:14;;;;;;;4.63;2.58;;;17.50;51.30;;;;;;5021955;28;20030;-58
2021/12/04 00:10:40;;;;;;;5.45;3.10;;;17.50;51.30;;;;;;5003898;28;20033;-53
2021/12/04 00:13:05;;;;;;;5.03;2.83;;;17.40;51.40;;;;;;5022205;28;20033;-55
2021/12/04 00:15:31;;;;;;;6.30;2.72;;;17.40;52.10;;;;;;5022623;28;20033;-55
2021/12/04 00:17:58;;;;;;;3.15;2.30;;;17.40;51.50;;;;;;5021592;28;20045;-51
2021/12/04 00:20:24;;;;;;;4.10;2.58;;;17.40;51.60;;;;;;5020749;28;20045;-56
2021/12/04 00:22:50;;;;;;;4.97;2.28;;;17.40;51.60;;;;;;5021238;28;20540;-54
2021/12/04 00:25:16;;;;;;;3.13;2.25;;;17.50;51.70;;;;;;5021692;28;20046;-56
2021/12/04 00:27:41;;;;;;;3.92;2.25;;;17.50;51.70;;;;;;5021092;28;20648;-59
2021/12/04 00:30:08;;;;;;;5.00;2.17;;;17.50;51.70;;;;;;5021166;28;20043;-55
2021/12/04 00:32:35;;;;;;;3.53;2.05;;;17.40;51.70;;;;;;5021310;28;20095;-60
2021/12/04 00:51:11;;;;;;;4.93;1.98;;;17.40;51.60;;;;;;4971521;23;20495;-56
2021/12/04 00:53:37;;;;;;;4.28;1.98;;;17.40;51.70;;;;;;4979768;28;20066;-55
2021/12/04 00:56:02;;;;;;;5.47;1.90;;;17.40;51.80;;;;;;4980339;28;20081;-58
2021/12/04 00:58:28;;;;;;;4.32;2.00;;;17.50;51.80;;;;;;4982047;28;20517;-54
2021/12/04 01:00:53;;;;;;;4.63;2.00;;;17.50;51.70;;;;;;4983787;28;20675;-58
2021/12/04 01:03:19;;;;;;;4.13;1.88;;;17.50;51.70;;;;;;4992428;28;20117;-49
2021/12/04 01:05:44;;;;;;;3.88;1.75;;;17.50;51.70;;;;;;5000519;28;20199;-54
2021/12/04 01:08:10;;;;;;;5.07;2.15;;;17.50;51.70;;;;;;4988380;28;20879;-54
2021/12/04 01:10:36;;;;;;;8.50;2.20;;;17.50;51.60;;;;;;4991725;28;20026;-52
2021/12/04 01:13:04;;;;;;;3.90;1.70;;;17.50;51.50;;;;;;4986874;28;20030;-53
2021/12/04 01:15:30;;;;;;;3.25;2.05;;;17.50;51.40;;;;;;4997096;28;20121;-53
2021/12/04 01:17:55;;;;;;;3.13;1.98;;;17.50;51.90;;;;;;5008258;28;20535;-55
2021/12/04 01:20:21;;;;;;;4.30;1.90;;;17.50;51.30;;;;;;4991630;28;20133;-55
2021/12/04 01:22:46;;;;;;;3.58;1.95;;;17.50;51.10;;;;;;5004521;28;20060;-57
2021/12/04 01:25:12;;;;;;;6.60;2.38;;;17.50;51.10;;;;;;4985742;28;20062;-55
2021/12/04 01:27:37;;;;;;;6.38;2.47;;;17.50;51.70;;;;;;4982852;28;20109;-50
2021/12/04 01:30:05;;;;;;;8.15;2.75;;;17.50;51.10;;;;;;4991860;28;20104;-56
2021/12/04 01:32:30;;;;;;;11.00;3.45;;;17.50;51.00;;;;;;4993520;28;20557;-54
2021/12/04 01:34:56;;;;;;;8.02;2.70;;;17.40;51.10;;;;;;4990897;28;20112;-53
2021/12/04 01:37:21;;;;;;;6.70;2.42;;;17.40;51.10;;;;;;5004208;28;20123;-55
2021/12/04 01:39:47;;;;;;;6.47;2.58;;;17.30;51.10;;;;;;4990490;28;20125;-56
2021/12/04 01:42:12;;;;;;;7.88;2.90;;;17.30;51.20;;;;;;4991927;28;20067;-57
2021/12/04 01:44:37;;;;;;;8.93;2.80;;;17.30;51.30;;;;;;4996811;28;20097;-56
2021/12/04 01:47:11;;;;;;;9.05;3.08;;;17.30;51.30;;;;;;4997513;28;20485;-51
2021/12/04 01:49:36;;;;;;;10.27;2.90;;;17.30;51.30;;;;;;4981584;28;20101;-57
2021/12/04 01:52:02;;;;;;;7.95;2.60;;;17.30;51.30;;;;;;5002797;28;20693;-56
2021/12/04 01:54:28;;;;;;;9.10;2.85;;;17.30;51.30;;;;;;4985280;28;20045;-57
2021/12/04 01:56:53;;;;;;;5.75;2.15;;;17.30;51.30;;;;;;5010026;28;20092;-52
2021/12/04 01:59:19;;;;;;;8.27;2.58;;;17.30;51.30;;;;;;4986653;28;20084;-52
2021/12/04 02:01:44;;;;;;;7.43;2.63;;;17.30;51.30;;;;;;5003813;28;20522;-56
2021/12/04 02:04:10;;;;;;;6.78;2.17;;;17.30;51.30;;;;;;4999138;28;20097;-58
2021/12/04 02:06:35;;;;;;;4.90;1.67;;;17.30;51.30;;;;;;4980907;28;20027;-57
2021/12/04 02:09:01;;;;;;;5.88;2.25;;;17.30;51.40;;;;;;5004518;28;20042;-55
2021/12/04 02:11:26;;;;;;;5.07;1.90;;;17.30;51.50;;;;;;4991296;28;20030;-55
2021/12/04 02:13:52;;;;;;;6.57;1.98;;;17.20;51.40;;;;;;4987185;28;20469;-50
2021/12/04 02:16:18;;;;;;;4.68;2.00;;;17.30;51.50;;;;;;4992052;28;20036;-53
2021/12/04 02:18:44;;;;;;;4.38;1.80;;;17.30;51.50;;;;;;5001049;28;20504;-51
2021/12/04 02:21:10;;;;;;;4.55;1.95;;;17.30;51.60;;;;;;4987416;28;20037;-58
2021/12/04 02:23:35;;;;;;;5.03;2.22;;;17.30;51.40;;;;;;4988219;28;20058;-54
2021/12/04 02:26:01;;;;;;;4.32;1.85;;;17.30;51.40;;;;;;4995792;28;20069;-56
2021/12/04 02:28:26;;;;;;;6.45;2.10;;;17.30;51.40;;;;;;4997360;28;20041;-54
2021/12/04 02:30:52;;;;;;;5.35;2.03;;;17.40;52.10;;;;;;4995640;28;20026;-57
2021/12/04 02:33:18;;;;;;;3.97;1.80;;;17.40;51.40;;;;;;4988286;28;20823;-51
2021/12/04 02:36:05;;;;;;;5.53;1.98;;;17.40;51.40;;;;;;4992625;28;20026;-54
2021/12/04 02:38:30;;;;;;;4.10;1.63;;;17.40;51.50;;;;;;4981279;28;20496;-54
2021/12/04 02:40:56;;;;;;;3.55;1.60;;;17.40;51.50;;;;;;4978316;28;20030;-51
2021/12/04 02:43:22;;;;;;;4.72;1.55;;;17.40;51.50;;;;;;4984394;28;20038;-53
2021/12/04 02:45:48;;;;;;;4.15;1.60;;;17.40;51.60;;;;;;4983748;28;20395;-57
2021/12/04 02:48:13;;;;;;;4.18;1.88;;;17.40;51.60;;;;;;4984855;28;20113;-56
2021/12/04 02:50:39;;;;;;;2.80;1.40;;;17.40;51.50;;;;;;4992126;28;20025;-55
2021/12/04 02:53:04;;;;;;;3.80;1.15;;;17.40;51.50;;;;;;4993392;28;20035;-60
2021/12/04 02:55:30;;;;;;;5.45;1.63;;;17.50;51.60;;;;;;4991555;28;20022;-55
2021/12/04 02:57:56;;;;;;;4.20;1.27;;;17.50;51.60;;;;;;4990465;28;20033;-57
2021/12/04 03:00:24;;;;;;;3.45;1.40;;;17.50;51.50;;;;;;4985417;28;20124;-57
2021/12/04 03:02:50;;;;;;;3.13;1.20;;;17.50;51.50;;;;;;4983654;28;20050;-57
2021/12/04 03:05:23;;;;;;;3.67;1.50;;;17.50;51.50;;;;;;4996351;28;20076;-56
2021/12/04 03:07:48;;;;;;;3.22;1.55;;;17.50;51.50;;;;;;5001551;28;20033;-51
2021/12/04 03:10:14;;;;;;;2.25;1.35;;;17.50;51.50;;;;;;4988777;28;20033;-55
2021/12/04 03:12:41;;;;;;;2.45;1.30;;;17.50;51.50;;;;;;4995648;28;20121;-52
2021/12/04 03:15:07;;;;;;;3.58;1.33;;;17.50;51.50;;;;;;4987178;28;20038;-54
2021/12/04 03:17:32;;;;;;;2.78;1.30;;;17.50;51.40;;;;;;4984069;28;20064;-58
2021/12/04 03:19:59;;;;;;;3.25;1.30;;;17.50;51.40;;;;;;4993179;28;20057;-51
2021/12/04 03:22:24;;;;;;;2.80;1.10;;;17.50;51.30;;;;;;4990260;28;20549;-56
2021/12/04 03:24:51;;;;;;;3.05;1.05;;;17.50;51.30;;;;;;5003330;28;20034;-57
2021/12/04 03:27:17;;;;;;;2.90;1.17;;;17.50;51.30;;;;;;4984804;28;20038;-58
2021/12/04 03:30:07;;;;;;;2.30;1.08;;;17.50;51.20;;;;;;4994477;28;20057;-55
2021/12/04 03:35:11;;;;;;;2.10;1.10;;;17.50;51.20;;;;;;4983037;28;20038;-57
2021/12/04 03:40:59;;;;;;;3.20;1.30;;;17.50;51.10;;;;;;4988044;28;20071;-53
2021/12/04 03:43:25;;;;;;;2.22;1.33;;;17.50;51.00;;;;;;4998023;28;20034;-57
2021/12/04 03:45:58;;;;;;;2.17;1.00;;;17.50;50.90;;;;;;4988425;28;20057;-54
2021/12/04 03:51:00;;;;;;;1.23;0.80;;;17.40;50.90;;;;;;4985850;28;20041;-53
2021/12/04 03:53:25;;;;;;;2.55;0.90;;;17.40;51.00;;;;;;4986095;28;20030;-52
2021/12/04 03:55:51;;;;;;;1.30;0.98;;;17.40;51.00;;;;;;4995082;28;20033;-55
2021/12/04 03:58:17;;;;;;;2.10;1.10;;;17.40;50.90;;;;;;4984398;28;20116;-54
2021/12/04 04:00:43;;;;;;;3.05;1.10;;;17.40;51.00;;;;;;4990124;28;20519;-53
2021/12/04 04:03:08;;;;;;;1.65;1.13;;;17.40;51.00;;;;;;4993879;28;20033;-57
2021/12/04 04:05:33;;;;;;;2.72;1.27;;;17.40;51.00;;;;;;4995221;28;20018;-52
2021/12/04 04:07:59;;;;;;;3.33;0.88;;;17.40;50.90;;;;;;4996026;28;20058;-53
2021/12/04 04:10:25;;;;;;;2.65;0.90;;;17.40;51.00;;;;;;4992682;28;20044;-53
2021/12/04 04:12:50;;;;;;;2.53;1.10;;;17.30;50.90;;;;;;4985098;28;20030;-56
2021/12/04 04:15:16;;;;;;;2.08;0.85;;;17.40;51.00;;;;;;4982914;28;20027;-56
2021/12/04 04:17:44;;;;;;;2.10;0.77;;;17.30;50.90;;;;;;4991614;28;20030;-55
2021/12/04 04:20:10;;;;;;;1.73;0.90;;;17.30;50.90;;;;;;5006092;28;20053;-56
2021/12/04 04:22:36;;;;;;;1.27;0.75;;;17.30;50.90;;;;;;4989209;28;20121;-56
2021/12/04 04:25:01;;;;;;;1.60;0.82;;;17.30;50.90;;;;;;4990583;28;20038;-57
2021/12/04 04:27:27;;;;;;;2.03;0.82;;;17.30;50.90;;;;;;4997621;28;20751;-51
2021/12/04 04:29:52;;;;;;;1.67;0.93;;;17.30;51.00;;;;;;4996192;28;20026;-52
2021/12/04 04:32:18;;;;;;;1.55;0.80;;;17.30;50.90;;;;;;4982978;28;20520;-57
2021/12/04 04:34:50;;;;;;;1.23;0.93;;;17.30;51.00;;;;;;5000412;28;20495;-56
2021/12/04 04:37:32;;;;;;;1.25;0.85;;;17.20;50.90;;;;;;4989285;28;20088;-56
2021/12/04 04:59:02;;;;;;;1.42;0.88;;;17.20;51.00;;;;;;5001592;28;20517;-57
2021/12/04 05:01:52;;;;;;;1.20;0.70;;;17.20;51.00;;;;;;4981887;28;20042;-53
2021/12/04 05:12:29;;;;;;;0.63;0.60;;;17.30;50.90;;;;;;4982199;28;20038;-54
2021/12/04 05:15:00;;;;;;;1.20;0.77;;;17.30;50.90;;;;;;4982509;28;20023;-56
2021/12/04 05:17:31;;;;;;;1.80;0.90;;;17.40;50.80;;;;;;4987202;28;20562;-52
2021/12/04 05:19:57;;;;;;;1.42;0.65;;;17.40;50.90;;;;;;5000945;28;20040;-53
2021/12/04 05:22:23;;;;;;;1.17;0.80;;;17.30;50.90;;;;;;5003202;28;20445;-51
2021/12/04 05:24:49;;;;;;;3.13;0.55;;;17.40;51.10;;;;;;4997024;28;20043;-53
2021/12/04 05:27:14;;;;;;;1.83;0.90;;;17.40;51.10;;;;;;5004369;28;20065;-52
2021/12/04 05:29:40;;;;;;;1.17;0.50;;;17.40;51.20;;;;;;4993852;28;20507;-54
2021/12/04 05:32:07;;;;;;;1.38;0.80;;;17.40;51.30;;;;;;5006148;28;20103;-53
2021/12/04 05:34:33;;;;;;;2.70;0.68;;;17.40;51.30;;;;;;4991578;28;20030;-54
2021/12/04 05:36:58;;;;;;;1.30;0.70;;;17.40;51.40;;;;;;4993210;28;20034;-51
2021/12/04 05:39:24;;;;;;;0.93;0.50;;;17.40;51.40;;;;;;4995674;28;20060;-56
2021/12/04 05:41:51;;;;;;;0.88;0.70;;;17.40;51.40;;;;;;4994449;28;20168;-53
2021/12/04 05:44:18;;;;;;;1.63;0.77;;;17.40;51.50;;;;;;4992257;28;20034;-56
2021/12/04 05:46:47;;;;;;;2.05;0.70;;;17.40;51.50;;;;;;4978856;28;20672;-50
2021/12/04 05:49:18;;;;;;;0.88;0.68;;;17.40;51.60;;;;;;4984524;28;20033;-53
2021/12/04 05:52:04;;;;;;;1.67;0.77;;;17.40;51.60;;;;;;4985145;28;20037;-52
2021/12/04 05:54:33;;;;;;;0.88;0.60;;;17.50;51.60;;;;;;4986271;28;20034;-58
2021/12/04 05:56:59;;;;;;;0.85;0.60;;;17.40;51.60;;;;;;5005831;28;20407;-57
2021/12/04 05:59:25;;;;;;;0.77;0.60;;;17.40;51.60;;;;;;5000762;28;20034;-58
2021/12/04 06:01:51;;;;;;;1.08;0.60;;;17.50;51.70;;;;;;5008561;28;20030;-57
2021/12/04 06:04:16;;;;;;;0.80;0.60;;;17.50;51.70;;;;;;5002714;28;20030;-55
2021/12/04 06:06:43;;;;;;;0.80;0.77;;;17.50;51.70;;;;;;4984829;28;20027;-54
2021/12/04 06:09:09;;;;;;;1.23;0.80;;;17.50;51.70;;;;;;4989625;28;20030;-55
2021/12/04 06:11:34;;;;;;;0.93;0.68;;;17.50;51.70;;;;;;4986972;28;20023;-55
2021/12/04 06:14:00;;;;;;;1.02;0.70;;;17.50;51.70;;;;;;4993618;28;20240;-55
2021/12/04 06:16:26;;;;;;;1.13;0.63;;;17.50;51.70;;;;;;4984906;28;20037;-50
2021/12/04 06:18:52;;;;;;;1.15;0.82;;;17.50;51.70;;;;;;4996415;28;20049;-56
2021/12/04 06:24:04;;;;;;;1.05;0.60;;;17.50;51.70;;;;;;5000904;28;20037;-51
2021/12/04 06:26:33;;;;;;;0.88;0.55;;;17.50;51.70;;;;;;4993229;28;20078;-59
2021/12/04 06:28:58;;;;;;;0.85;0.55;;;17.50;51.70;;;;;;4984783;28;20415;-53
2021/12/04 06:31:24;;;;;;;0.95;0.68;;;17.50;51.70;;;;;;4985026;28;20022;-53
2021/12/04 06:33:50;;;;;;;0.90;0.65;;;17.50;51.70;;;;;;4986341;28;20027;-52
2021/12/04 06:36:16;;;;;;;0.60;0.40;;;17.50;51.70;;;;;;4980584;28;20030;-58
2021/12/04 06:38:41;;;;;;;0.98;0.60;;;17.50;51.70;;;;;;4987156;28;20400;-58
2021/12/04 06:41:07;;;;;;;0.70;0.55;;;17.50;51.70;;;;;;4992653;28;20096;-57
2021/12/04 06:43:33;;;;;;;1.10;0.50;;;17.50;51.70;;;;;;4992518;28;20101;-55
2021/12/04 06:46:03;;;;;;;0.60;0.60;;;17.50;51.70;;;;;;4983027;28;20060;-57
2021/12/04 06:48:38;;;;;;;0.65;0.52;;;17.50;51.70;;;;;;4987365;28;20030;-57
2021/12/04 06:53:43;;;;;;;0.50;0.50;;;17.50;51.70;;;;;;4972399;28;20070;-52
2021/12/04 06:56:11;;;;;;;0.82;0.60;;;17.50;51.70;;;;;;5000252;28;20113;-50
2021/12/04 06:58:37;;;;;;;1.55;0.75;;;17.50;51.70;;;;;;4991199;28;20408;-59
2021/12/04 07:01:04;;;;;;;1.10;0.80;;;17.50;51.60;;;;;;4994641;28;20026;-54
2021/12/04 07:03:30;;;;;;;1.00;0.77;;;17.60;51.50;;;;;;5003719;28;20553;-50
2021/12/04 07:05:55;;;;;;;0.73;0.60;;;17.50;51.50;;;;;;4987951;28;20109;-53
2021/12/04 07:08:21;;;;;;;2.35;0.70;;;17.50;51.50;;;;;;5001044;28;20079;-56
2021/12/04 07:10:46;;;;;;;2.13;0.70;;;17.50;51.50;;;;;;4985393;28;20616;-52
2021/12/04 07:13:12;;;;;;;2.25;0.90;;;17.50;51.60;;;;;;4984264;28;20692;-53
2021/12/04 07:15:40;;;;;;;6.90;1.13;;;17.50;51.90;;;;;;4982143;28;20026;-54
2021/12/04 07:18:06;;;;;;;5.63;0.90;;;17.50;52.00;;;;;;4979326;28;20027;-55
2021/12/04 07:20:32;;;;;;;4.05;0.85;;;17.50;52.10;;;;;;5000522;28;20385;-52
2021/12/04 07:22:59;;;;;;;3.92;1.02;;;17.50;52.10;;;;;;4983958;28;20030;-53
2021/12/04 07:25:24;;;;;;;3.13;0.80;;;17.40;52.10;;;;;;4994029;28;20042;-54
2021/12/04 07:27:50;;;;;;;3.72;0.80;;;17.50;52.20;;;;;;4985847;28;20030;-58
2021/12/04 07:30:19;;;;;;;3.85;0.90;;;17.40;52.10;;;;;;4993989;28;20053;-51
2021/12/04 07:32:45;;;;;;;5.68;1.33;;;17.40;52.10;;;;;;4981136;28;20030;-55
2021/12/04 07:35:10;;;;;;;7.75;1.45;;;17.40;52.20;;;;;;5003297;28;20108;-57
2021/12/04 07:37:36;;;;;;;4.75;1.08;;;17.40;52.20;;;;;;5017492;28;20655;-54
2021/12/04 07:40:02;;;;;;;7.38;1.10;;;17.40;52.20;;;;;;4992691;28;20037;-55
2021/12/04 07:42:28;;;;;;;4.88;0.95;;;17.40;52.30;;;;;;4985166;28;20030;-54
2021/12/04 07:44:53;;;;;;;3.85;1.30;;;17.40;52.30;;;;;;4988706;28;20036;-52
2021/12/04 07:47:18;;;;;;;5.00;1.10;;;17.40;52.20;;;;;;4997649;28;20034;-57
2021/12/04 07:49:44;;;;;;;7.93;1.60;;;17.50;52.20;;;;;;4995581;28;20085;-59
2021/12/04 07:52:10;;;;;;;5.10;1.10;;;17.40;52.30;;;;;;4992918;28;20133;-59
2021/12/04 07:54:36;;;;;;;5.60;1.20;;;17.40;52.20;;;;;;5009354;28;20026;-56
2021/12/04 07:57:01;;;;;;;3.83;1.30;;;17.40;52.10;;;;;;4989647;28;20084;-57
2021/12/04 07:59:28;;;;;;;4.57;1.42;;;17.40;52.00;;;;;;5001915;28;20041;-54
2021/12/04 08:01:55;;;;;;;7.05;1.30;;;17.40;52.00;;;;;;5002825;28;20026;-58
2021/12/04 08:04:20;;;;;;;5.20;1.23;;;17.40;51.90;;;;;;4996144;28;20039;-57
2021/12/04 08:06:46;;;;;;;4.03;1.08;;;17.40;51.90;;;;;;4998968;28;20025;-55
2021/12/04 08:09:11;;;;;;;6.30;1.13;;;17.40;52.40;;;;;;5002757;28;20401;-50
2021/12/04 08:11:37;;;;;;;1.95;1.13;;;17.40;51.70;;;;;;4990771;28;20061;-52
2021/12/04 08:14:02;;;;;;;3.30;1.20;;;17.40;51.70;;;;;;5001598;28;20034;-56
2021/12/04 08:16:28;;;;;;;2.13;1.30;;;17.40;51.60;;;;;;5002660;28;20403;-58
2021/12/04 08:18:54;;;;;;;3.03;1.33;;;17.40;51.60;;;;;;4996584;28;20039;-55
2021/12/04 08:21:20;;;;;;;4.97;1.23;;;17.30;51.60;;;;;;4981009;28;20039;-54
2021/12/04 08:23:46;;;;;;;8.43;3.55;;;17.30;51.60;;;;;;4997680;28;20027;-55
2021/12/04 08:26:12;;;;;;;5.38;2.65;;;17.40;51.90;;;;;;4983375;28;20128;-51
2021/12/04 08:28:37;;;;;;;5.68;2.45;;;17.40;51.80;;;;;;4988671;28;20023;-53
2021/12/04 08:31:03;;;;;;;3.55;2.25;;;17.40;51.70;;;;;;5003742;28;20653;-54
2021/12/04 08:33:28;;;;;;;6.68;2.50;;;17.40;51.70;;;;;;4983551;28;20177;-51
2021/12/04 08:35:54;;;;;;;6.22;3.22;;;17.40;51.60;;;;;;4993712;28;20026;-51
2021/12/04 08:38:19;;;;;;;5.28;3.05;;;17.40;51.70;;;;;;4983163;28;20041;-59
2021/12/04 08:40:45;;;;;;;5.70;3.45;;;17.40;51.70;;;;;;4994393;28;20023;-55
2021/12/04 08:43:11;;;;;;;44.60;16.55;;;17.40;51.80;;;;;;4989175;28;20030;-57
2021/12/04 08:45:37;;;;;;;48.20;22.67;;;17.30;52.70;;;;;;4991773;28;20081;-55
2021/12/04 08:48:03;;;;;;;49.30;23.08;;;17.30;53.40;;;;;;4988519;28;20084;-57
2021/12/04 08:50:29;;;;;;;46.50;23.42;;;17.30;53.70;;;;;;4987264;28;20030;-53
2021/12/04 08:52:55;;;;;;;54.53;23.33;;;17.30;53.80;;;;;;4983681;28;20786;-51
2021/12/04 08:55:21;;;;;;;49.90;22.60;;;17.30;53.90;;;;;;4992291;28;20118;-56
2021/12/04 08:57:46;;;;;;;52.28;23.05;;;17.30;54.00;;;;;;4994121;28;20713;-53
2021/12/04 09:00:21;;;;;;;48.00;22.98;;;17.20;54.00;;;;;;4964718;28;20070;-54
2021/12/04 09:02:47;;;;;;;45.27;20.67;;;17.20;54.10;;;;;;4989026;28;20034;-52
2021/12/04 09:05:13;;;;;;;39.47;17.52;;;17.20;54.00;;;;;;4993370;28;20612;-57
2021/12/04 09:07:38;;;;;;;34.80;15.73;;;17.20;54.00;;;;;;4958595;28;20038;-53
2021/12/04 09:10:05;;;;;;;30.10;12.73;;;17.20;54.10;;;;;;4962654;28;20118;-58
2021/12/04 09:12:30;;;;;;;23.73;11.80;;;17.20;54.10;;;;;;4994826;28;20030;-57
2021/12/04 09:14:56;;;;;;;26.17;11.65;;;17.20;54.00;;;;;;5000403;28;20523;-58
2021/12/04 09:17:22;;;;;;;18.60;10.63;;;17.20;53.80;;;;;;4987106;28;20553;-53
2021/12/04 09:19:48;;;;;;;20.88;10.13;;;17.10;53.60;;;;;;4981059;28;20522;-53
2021/12/04 09:22:24;;;;;;;16.85;9.48;;;17.20;53.50;;;;;;4987796;28;20030;-56
2021/12/04 09:24:53;;;;;;;16.70;9.13;;;17.20;53.30;;;;;;4998004;28;20042;-55
2021/12/04 09:27:32;;;;;;;17.40;8.57;;;17.30;53.00;;;;;;5016922;28;20036;-53
2021/12/04 09:30:09;;;;;;;15.55;8.02;;;17.30;52.70;;;;;;4967893;28;20023;-54
2021/12/04 09:35:16;;;;;;;10.23;6.90;;;17.40;52.60;;;;;;4986828;28;20031;-56
2021/12/04 10:02:59;;;;;;;8.98;5.57;;;17.50;52.40;;;;;;4998367;28;20168;-58
2021/12/04 10:16:19;;;;;;;13.80;6.60;;;17.70;52.70;;;;;;4984537;28;20108;-58
2021/12/04 10:19:13;;;;;;;11.65;6.47;;;17.60;53.40;;;;;;5000362;28;20030;-56
2021/12/04 10:33:06;;;;;;;15.73;7.68;;;17.70;53.70;;;;;;5001987;28;20092;-54
2021/12/04 10:35:17;;;;;;;13.43;6.18;;;17.70;53.70;;;;;;4979277;28;20033;-58
2021/12/04 10:37:59;;;;;;;11.98;6.55;;;17.70;54.00;;;;;;4982187;28;20029;-53
2021/12/04 10:40:34;;;;;;;13.30;6.35;;;17.70;54.00;;;;;;5002510;28;20041;-58
2021/12/04 10:43:01;;;;;;;13.32;6.18;;;17.70;54.50;;;;;;5000153;28;20077;-57
2021/12/04 10:45:33;;;;;;;15.90;6.30;;;17.70;54.90;;;;;;5002956;28;20033;-56
2021/12/04 10:48:00;;;;;;;17.25;6.55;;;17.70;55.30;;;;;;4986796;28;20137;-54
2021/12/04 10:52:58;;;;;;;10.95;5.95;;;17.70;56.00;;;;;;5002613;28;20034;-52
2021/12/04 11:36:14;;;;;;;9.15;4.35;;;17.40;57.70;;;;;;5002645;28;20463;-57
2021/12/04 11:38:48;;;;;;;6.80;3.78;;;17.40;57.80;;;;;;4998867;28;20512;-56
2021/12/04 11:43:56;;;;;;;9.10;3.13;;;17.40;58.20;;;;;;4980506;28;20036;-53
2021/12/04 11:46:29;;;;;;;8.43;3.70;;;17.40;58.40;;;;;;4987752;28;20026;-53
2021/12/04 11:48:59;;;;;;;5.72;3.58;;;17.40;58.40;;;;;;4981388;28;20034;-53
2021/12/04 11:51:25;;;;;;;5.82;3.30;;;17.40;58.30;;;;;;4985166;28;20104;-55
2021/12/04 11:53:51;;;;;;;5.57;3.40;;;17.40;58.70;;;;;;4978549;28;20109;-57
2021/12/04 11:56:22;;;;;;;8.55;3.58;;;17.40;58.70;;;;;;5001136;28;20029;-52
2021/12/04 11:58:48;;;;;;;7.78;3.10;;;17.40;58.90;;;;;;4980599;28;20059;-56
2021/12/04 12:01:41;;;;;;;5.22;2.97;;;17.40;58.80;;;;;;4983538;28;20034;-56
2021/12/04 12:04:09;;;;;;;6.68;3.42;;;17.40;59.30;;;;;;4990288;28;20030;-54
2021/12/04 12:06:44;;;;;;;5.38;3.30;;;17.40;59.20;;;;;;5001968;28;20090;-55
2021/12/04 12:09:19;;;;;;;7.15;3.08;;;17.40;59.40;;;;;;4994298;28;20072;-52
2021/12/04 12:11:57;;;;;;;5.93;3.72;;;17.40;59.30;;;;;;4984694;28;20041;-54
2021/12/04 12:14:37;;;;;;;8.77;3.30;;;17.40;59.60;;;;;;4993961;28;20030;-56
2021/12/04 12:17:02;;;;;;;8.48;3.15;;;17.40;60.00;;;;;;4998685;28;20887;-55
2021/12/04 12:19:31;;;;;;;7.18;3.67;;;17.40;60.20;;;;;;4980061;28;20140;-52
2021/12/04 12:22:02;;;;;;;9.77;3.88;;;17.40;60.60;;;;;;4986736;28;20033;-57
2021/12/04 12:36:10;;;;;;;9.65;3.95;;;17.50;61.30;;;;;;5003669;28;20042;-55
2021/12/04 12:38:51;;;;;;;7.80;3.70;;;17.50;61.30;;;;;;4980177;28;20117;-57
2021/12/04 12:41:34;;;;;;;8.57;4.10;;;17.50;61.20;;;;;;4988260;28;20030;-54
2021/12/04 12:44:07;;;;;;;6.43;4.18;;;17.50;61.20;;;;;;5000669;28;20048;-56
2021/12/04 12:46:43;;;;;;;10.38;4.43;;;17.50;61.10;;;;;;4986528;28;20034;-57
2021/12/04 12:49:50;;;;;;;8.10;4.07;;;17.50;61.20;;;;;;4996386;28;20042;-53
2021/12/04 12:52:19;;;;;;;;;;;17.50;61.20;;;;;;4992666;28;20038;-56
2021/12/04 12:54:56;;;;;;;10.98;4.38;;;17.50;61.10;;;;;;4999064;28;19909;-55
2021/12/04 12:57:24;;;;;;;10.82;3.88;;;17.50;60.70;;;;;;4981675;28;20058;-55
2021/12/04 13:11:47;;;;;;;12.70;4.82;;;17.60;60.40;;;;;;5007242;28;20045;-57
2021/12/04 13:14:25;;;;;;;11.98;5.38;;;17.60;60.60;;;;;;4975840;28;20575;-57
2021/12/04 13:16:57;;;;;;;15.02;4.47;;;17.60;60.50;;;;;;4974012;28;20044;-58
2021/12/04 13:19:23;;;;;;;12.32;4.10;;;17.60;60.30;;;;;;5006907;28;20386;-55
2021/12/04 13:21:51;;;;;;;12.00;4.57;;;17.60;60.20;;;;;;5007322;28;20033;-55
2021/12/04 13:24:17;;;;;;;11.35;4.63;;;17.60;60.10;;;;;;4989698;28;20034;-54
2021/12/04 13:26:44;;;;;;;11.02;4.30;;;17.60;60.20;;;;;;4989180;28;20052;-54
2021/12/04 13:29:12;;;;;;;10.07;4.30;;;17.60;60.10;;;;;;4971925;28;20062;-55
2021/12/04 13:31:38;;;;;;;9.20;3.97;;;17.60;60.10;;;;;;4989472;28;20041;-56
2021/12/04 13:34:06;;;;;;;11.85;3.97;;;17.70;60.10;;;;;;4989811;28;20034;-58
2021/12/04 13:36:32;;;;;;;11.57;5.50;;;17.60;59.90;;;;;;4990286;28;20018;-53
2021/12/04 13:39:09;;;;;;;9.98;4.32;;;17.60;59.90;;;;;;5006207;28;20037;-57
2021/12/04 13:41:35;;;;;;;8.77;4.32;;;17.60;59.80;;;;;;5006592;28;20034;-58
2021/12/04 13:44:02;;;;;;;10.30;4.47;;;17.60;60.40;;;;;;5007276;28;20030;-56
2021/12/04 13:46:27;;;;;;;7.47;3.80;;;17.60;60.50;;;;;;4989201;28;20045;-53
2021/12/04 13:49:00;;;;;;;11.65;3.67;;;17.60;60.00;;;;;;5006062;28;24790;-58
2021/12/04 13:51:25;;;;;;;9.93;4.00;;;17.60;60.00;;;;;;5006349;28;20026;-58
2021/12/04 13:53:51;;;;;;;10.13;4.43;;;17.60;59.90;;;;;;5005481;28;20060;-56
2021/12/04 13:56:17;;;;;;;11.05;3.67;;;17.60;59.90;;;;;;4973317;28;20487;-57
2021/12/04 13:58:52;;;;;;;7.22;3.67;;;17.60;59.80;;;;;;5005923;28;20131;-58
2021/12/04 14:01:18;;;;;;;11.93;4.40;;;17.60;59.90;;;;;;5006241;28;20037;-57
2021/12/04 14:03:45;;;;;;;9.75;4.00;;;17.60;60.00;;;;;;5004643;28;20438;-54
2021/12/04 14:06:12;;;;;;;7.55;4.35;;;17.60;60.20;;;;;;4987088;28;20095;-57
2021/12/04 14:08:38;;;;;;;11.82;3.85;;;17.50;60.20;;;;;;4986972;28;20550;-58
2021/12/04 14:11:03;;;;;;;11.55;3.95;;;17.50;60.30;;;;;;4987357;28;20168;-53
2021/12/04 14:13:29;;;;;;;9.45;3.92;;;17.50;60.20;;;;;;5004278;28;20410;-57
2021/12/04 14:15:55;;;;;;;8.38;3.83;;;17.50;60.10;;;;;;5004822;28;20117;-57
2021/12/04 14:18:25;;;;;;;8.80;3.60;;;17.50;60.20;;;;;;5002919;28;20483;-58
2021/12/04 14:20:52;;;;;;;11.73;3.97;;;17.50;60.30;;;;;;5005243;28;20049;-58
2021/12/04 14:23:18;;;;;;;9.23;3.72;;;17.50;60.40;;;;;;4987914;28;20061;-54
2021/12/04 14:25:44;;;;;;;8.38;3.72;;;17.50;60.50;;;;;;5005531;28;20053;-58
2021/12/04 14:28:14;;;;;;;13.57;4.13;;;17.50;60.50;;;;;;5005068;28;20045;-57
2021/12/04 14:30:43;;;;;;;13.73;4.07;;;17.50;60.40;;;;;;4988349;28;20034;-58
2021/12/04 14:33:09;;;;;;;10.18;4.07;;;17.50;60.20;;;;;;4987570;28;20456;-57
2021/12/04 14:35:37;;;;;;;8.52;3.67;;;17.50;60.20;;;;;;5005870;28;20076;-55
2021/12/04 14:38:05;;;;;;;8.38;3.65;;;17.50;60.10;;;;;;4989369;28;20049;-58
2021/12/04 14:40:36;;;;;;;10.82;4.10;;;17.50;60.00;;;;;;4987924;28;20677;-58
2021/12/04 14:43:03;;;;;;;9.35;4.32;;;17.60;60.10;;;;;;4973201;28;20491;-57
2021/12/04 14:45:31;;;;;;;7.68;3.90;;;17.60;60.10;;;;;;4987741;28;20049;-56
2021/12/04 14:48:05;;;;;;;8.35;3.97;;;17.60;60.00;;;;;;4971215;28;20021;-53
2021/12/04 14:50:31;;;;;;;7.75;3.53;;;17.50;59.80;;;;;;5004263;28;20487;-54
2021/12/04 14:53:00;;;;;;;9.05;3.53;;;17.50;59.80;;;;;;4987914;28;20030;-53
2021/12/04 14:55:34;;;;;;;7.20;3.67;;;17.60;60.10;;;;;;5005243;28;20096;-57
2021/12/04 14:58:00;;;;;;;10.43;4.10;;;17.50;60.20;;;;;;4988479;28;20088;-57
2021/12/04 15:00:28;;;;;;;8.13;3.60;;;17.50;60.20;;;;;;5004228;28;20483;-58
2021/12/04 15:02:59;;;;;;;7.63;3.55;;;17.50;60.10;;;;;;4953977;28;20095;-58
2021/12/04 15:05:35;;;;;;;5.28;3.40;;;17.50;59.80;;;;;;4969661;28;20049;-57
2021/12/04 15:08:09;;;;;;;7.32;3.50;;;17.50;59.70;;;;;;4989629;28;20399;-57
2021/12/04 15:10:35;;;;;;;5.95;3.92;;;17.50;59.60;;;;;;5004290;28;20030;-59
2021/12/04 15:13:00;;;;;;;9.60;4.88;;;17.50;59.70;;;;;;4988444;28;20041;-54
2021/12/04 15:15:28;;;;;;;15.00;6.68;;;17.50;60.10;;;;;;4988427;28;20728;-58
2021/12/04 15:17:55;;;;;;;9.68;6.15;;;17.50;60.40;;;;;;4987144;28;22662;-61
2021/12/04 15:20:28;;;;;;;9.60;5.70;;;17.50;60.60;;;;;;4987399;28;20446;-57
2021/12/04 15:22:57;;;;;;;9.65;5.28;;;17.50;60.60;;;;;;5000725;28;20026;-57
2021/12/04 15:25:25;;;;;;;11.30;5.10;;;17.50;60.80;;;;;;5005078;28;20030;-54
2021/12/04 15:27:51;;;;;;;10.15;5.55;;;17.50;60.80;;;;;;5004980;28;20026;-57
2021/12/04 15:30:18;;;;;;;10.27;5.70;;;17.50;60.80;;;;;;4995603;28;20037;-58
2021/12/04 15:32:43;;;;;;;8.45;5.38;;;17.50;60.80;;;;;;5003642;28;20030;-58
2021/12/04 15:35:39;;;;;;;11.02;5.40;;;17.50;60.80;;;;;;4988080;28;20096;-58
2021/12/04 15:38:14;;;;;;;9.77;5.28;;;17.50;60.90;;;;;;4985342;28;20038;-57
2021/12/04 15:40:51;;;;;;;8.63;5.77;;;17.50;60.70;;;;;;5004766;28;20080;-58
2021/12/04 15:43:23;;;;;;;10.95;6.05;;;17.50;61.30;;;;;;4989337;28;20300;-56
2021/12/04 15:46:33;;;;;;;20.60;9.90;;;17.50;60.60;;;;;;4985788;28;20462;-54